Rockdale, Texas
Current Conditions -  °F | °C
As of 11:15 AM on Wednesday 26 Nov 2014 (Local Time) from KT35 Reporting Station
Clear Clear  
Wind Chill: 65°   Ceiling: Unl
Heat Index: 65°   Visibility: 10mi
Dew Point: 36°   Wind: 13mph
Humidity: 34%   Direction: 250°WSW
Pressure: 30.19"   Gusts: 18mph
Location:  30.66°N, 97°W
Report Text: KT35 261715Z AUTO 25011G16KT 10SM CLR 19/02 A3019 RMK AO2 T01850021
Loading
Personal Weather Stations






























Interactive Weather Map New forecast layout! Learn more

10-Day Weather Forecast

Advertisements
Track Severe Weather on mobile